Latest Weather Observations for Lismore Airport

IDN60801

Issued at 1:32 pm EST Monday 25 May 2015 (issued every 30 minutes, with the page automatically refreshed every 10 minutes)

About weather observations | Map of weather stations | Latest weather observations for NSW | Other Formats
Station Details ID: 058214 Name: LISMORE AIRPORT AWS Lat: -28.83 Lon: 153.26 Height: 9.21 m
Data from the previous 72 hours. | See also: Recent months for locations in New South Wales
Date/Time
EST
Temp
°C
App
Temp
°C
Dew
Point
Rel
Hum
%
Delta-T
°C
Wind Press
QNH
hPa
Press
MSL
hPa
Rain
since 9 am
mm
Dir
 
Spd
km/h
Gust
km/h
Spd
kts
Gust
kts
25/01:30pm 19.7 18.5 13.9 69 3.3 WSW 13 20 7 11 1029.1 1029.1 0.2
25/01:00pm 20.1 20.0 14.0 68 3.5 WSW 7 13 4 7 1029.3 1029.3 0.2
25/12:30pm 19.7 18.6 14.3 71 3.1 WSW 13 20 7 11 1029.8 1029.8 0.2
25/12:00pm 19.3 19.1 14.6 74 2.7 WSW 9 17 5 9 1030.1 1030.1 0.2
25/11:30am 18.5 17.8 14.4 77 2.4 SW 11 17 6 9 1030.8 1030.8 0.2
25/11:00am 18.2 18.2 15.1 82 1.8 WSW 9 15 5 8 1031.6 1031.6 0.0
25/10:30am 17.7 17.3 14.2 80 2.0 WSW 9 13 5 7 1031.8 1031.8 0.0
25/10:00am 17.0 15.8 13.9 82 1.7 WSW 13 15 7 8 1032.1 1032.1 0.0
25/09:30am 16.6 16.1 13.9 84 1.5 SW 9 11 5 6 1032.0 1032.0 0.0
25/09:00am 15.9 15.4 12.8 82 1.7 SW 7 11 4 6 1031.6 1031.6 0.8
25/08:30am 14.3 15.6 14.1 99 0.1 CALM 0 0 0 0 1031.3 1031.3 0.8
25/08:00am 14.0 15.3 14.0 100 0.0 CALM 0 0 0 0 1031.3 1031.3 0.8
25/07:30am 13.4 14.5 13.4 100 0.0 CALM 0 9 0 5 1031.1 1031.1 0.8
25/07:00am 12.9 13.8 12.9 100 0.0 CALM 0 0 0 0 1031.1 1031.1 0.8
25/06:30am 12.7 13.5 12.7 100 0.0 CALM 0 0 0 0 1031.0 1031.0 0.8
25/06:00am 12.5 12.9 12.5 100 0.0 ENE 2 6 1 3 1030.7 1030.7 0.8
25/05:30am 11.7 10.9 11.7 100 0.0 WNW 7 11 4 6 1030.6 1030.6 0.8
25/05:00am 11.9 10.8 11.9 100 0.0 NNE 9 9 5 5 1030.5 1030.5 0.8
25/04:30am 11.4 11.8 11.2 99 0.1 CALM 0 0 0 0 1030.2 1030.2 0.8
25/04:08am 11.3 11.7 11.1 99 0.1 CALM 0 0 0 0 1030.2 1030.2 0.8
25/04:00am 11.7 12.2 11.5 99 0.1 CALM 0 0 0 0 1030.2 1030.2 0.8
25/03:57am 11.7 12.2 11.5 99 0.1 CALM 0 0 0 0 1030.2 1030.2 0.8
25/03:30am 12.6 13.4 12.4 99 0.1 CALM 0 6 0 3 1030.3 1030.3 0.8
25/03:00am 12.9 12.6 12.7 99 0.1 SSW 6 9 3 5 1030.3 1030.3 0.8
25/02:39am 13.5 14.6 13.5 100 0.0 CALM 0 6 0 3 1030.2 1030.2 0.8
25/02:30am 13.4 14.5 13.4 100 0.0 CALM 0 0 0 0 1030.4 1030.4 0.8
25/02:29am 13.4 14.5 13.4 100 0.0 CALM 0 0 0 0 1030.4 1030.4 0.8
25/02:00am 13.3 13.6 13.3 100 0.0 NE 4 7 2 4 1030.7 1030.7 0.8
25/01:30am 13.0 13.1 12.8 99 0.1 NNE 4 9 2 5 1030.5 1030.5 0.8
25/01:00am 13.9 14.7 13.7 99 0.1 S 2 7 1 4 1030.5 1030.5 0.8
25/12:30am 14.0 13.9 14.0 100 0.0 SW 7 9 4 5 1030.4 1030.4 0.8
25/12:09am 14.0 12.8 14.0 100 0.0 SSW 13 17 7 9 1030.6 1030.6 0.8
25/12:00am 14.1 12.9 13.9 99 0.1 SW 13 17 7 9 1030.8 1030.8 0.8
 
Date/Time
EST
Temp
°C
App
Temp
°C
Dew
Point
Rel
Hum
%
Delta-T
°C
Wind Press
QNH
hPa
Press
MSL
hPa
Rain
since 9 am
mm
Dir
 
Spd
km/h
Gust
km/h
Spd
kts
Gust
kts
24/11:43pm 14.0 13.1 13.8 99 0.1 SSE 11 13 6 7 1031.1 1031.1 0.2
24/11:30pm 13.6 13.0 13.4 99 0.1 SSE 9 11 5 6 1031.1 1031.1 0.0
24/11:00pm 13.3 14.3 13.1 99 0.1 CALM 0 0 0 0 1031.1 1031.1 0.0
24/10:30pm 13.7 14.8 13.4 98 0.2 CALM 0 0 0 0 1031.1 1031.1 0.0
24/10:00pm 14.6 15.8 13.8 95 0.4 CALM 0 0 0 0 1030.7 1030.7 0.0
24/09:30pm 15.0 16.3 14.2 95 0.5 CALM 0 0 0 0 1030.9 1030.9 0.0
24/09:00pm 15.5 16.4 14.0 91 0.8 SE 2 7 1 4 1030.9 1030.9 0.0
24/08:30pm 15.5 14.8 14.2 92 0.7 S 11 17 6 9 1030.6 1030.6 0.0
24/08:00pm 14.6 14.4 13.6 94 0.6 SSW 7 11 4 6 1030.5 1030.5 0.0
24/07:30pm 14.3 13.1 12.9 91 0.8 SSW 11 13 6 7 1030.2 1030.2 0.0
24/07:00pm 14.8 14.0 13.0 89 1.0 SW 9 11 5 6 1029.8 1029.8 0.0
24/06:30pm 14.8 13.6 12.7 87 1.1 S 11 13 6 7 1029.7 1029.7 0.0
24/06:00pm 15.7 15.1 13.4 86 1.3 SSW 9 11 5 6 1029.7 1029.7 0.0
24/05:30pm 16.1 15.0 13.2 83 1.6 S 11 13 6 7 1029.8 1029.8 0.0
24/05:00pm 17.3 14.9 12.8 75 2.5 S 17 20 9 11 1029.2 1029.2 0.0
24/04:30pm 18.0 15.0 12.7 71 3.0 S 20 28 11 15 1028.7 1028.7 0.0
24/04:00pm 18.6 15.7 12.8 69 3.2 S 20 28 11 15 1028.5 1028.5 0.0
24/03:30pm 19.4 15.8 12.9 66 3.7 SSE 24 30 13 16 1028.2 1028.2 0.0
24/03:00pm 20.2 17.0 13.2 64 4.0 SSE 22 30 12 16 1028.2 1028.2 0.0
24/02:30pm 20.4 16.5 13.4 64 4.0 S 26 33 14 18 1028.3 1028.3 0.0
24/02:00pm 20.5 16.6 13.2 63 4.1 S 26 35 14 19 1028.0 1028.0 0.0
24/01:30pm 21.1 17.3 12.5 58 4.9 S 24 32 13 17 1028.0 1028.0 0.0
24/01:00pm 20.6 17.2 12.6 60 4.5 SSE 22 32 12 17 1027.9 1027.9 0.0
24/12:30pm 20.4 17.4 12.4 60 4.5 SSE 20 28 11 15 1028.1 1028.1 0.0
24/12:00pm 19.4 15.1 12.2 63 4.0 SSE 26 35 14 19 1028.5 1028.5 0.0
24/11:30am 20.1 17.7 12.6 62 4.2 SSE 17 28 9 15 1028.9 1028.9 0.0
24/11:00am 19.4 16.5 12.2 63 4.0 SSW 19 26 10 14 1029.5 1029.5 0.0
24/10:30am 18.1 14.5 11.7 66 3.5 S 22 32 12 17 1029.8 1029.8 0.0
24/10:00am 18.2 15.8 12.6 70 3.1 SSW 17 22 9 12 1029.9 1029.9 0.0
24/09:30am 17.2 16.1 13.1 77 2.3 SW 11 17 6 9 1030.2 1030.2 0.0
24/09:00am 16.2 15.7 12.2 77 2.2 SSE 6 7 3 4 1030.1 1030.1 0.4
24/08:30am 15.3 13.8 11.9 80 1.8 SW 11 17 6 9 1029.9 1029.9 0.4
24/08:00am 14.3 12.5 12.0 86 1.2 SW 13 19 7 10 1029.4 1029.4 0.4
24/07:30am 12.3 12.6 12.1 99 0.1 S 2 7 1 4 1029.0 1029.0 0.4
24/07:00am 10.4 10.1 10.2 99 0.1 E 2 7 1 4 1028.5 1028.5 0.4
24/06:30am 10.9 9.8 10.7 99 0.1 SSE 7 9 4 5 1028.1 1028.1 0.4
24/06:00am 12.0 10.8 11.5 97 0.3 SE 9 11 5 6 1027.8 1027.8 0.4
24/05:30am 11.7 12.2 11.5 99 0.1 CALM 0 0 0 0 1027.5 1027.5 0.4
24/05:00am 11.9 12.4 11.7 99 0.1 CALM 0 0 0 0 1027.3 1027.3 0.4
24/04:30am 11.4 11.8 11.2 99 0.1 CALM 0 0 0 0 1027.2 1027.2 0.4
24/04:00am 11.1 11.4 10.9 99 0.1 CALM 0 0 0 0 1027.1 1027.1 0.4
24/03:30am 11.6 12.0 11.4 99 0.1 CALM 0 0 0 0 1026.8 1026.8 0.4
24/03:00am 12.5 13.2 12.3 99 0.1 CALM 0 0 0 0 1026.9 1026.9 0.4
24/02:30am 13.1 14.0 12.9 99 0.1 CALM 0 0 0 0 1026.7 1026.7 0.4
24/02:00am 13.0 13.5 12.8 99 0.1 SSE 2 6 1 3 1026.8 1026.8 0.4
24/01:30am 13.0 12.1 12.7 98 0.2 SW 9 13 5 7 1026.8 1026.8 0.4
24/01:00am 13.6 14.7 13.4 99 0.1 CALM 0 0 0 0 1026.7 1026.7 0.4
24/12:30am 14.0 13.5 13.8 99 0.1 SSW 9 13 5 7 1026.5 1026.5 0.4
24/12:00am 14.3 15.7 14.3 100 0.0 CALM 0 0 0 0 1026.5 1026.5 0.4
 
Date/Time
EST
Temp
°C
App
Temp
°C
Dew
Point
Rel
Hum
%
Delta-T
°C
Wind Press
QNH
hPa
Press
MSL
hPa
Rain
since 9 am
mm
Dir
 
Spd
km/h
Gust
km/h
Spd
kts
Gust
kts
23/11:30pm 14.4 15.8 14.4 100 0.0 CALM 0 0 0 0 1026.8 1026.8 0.4
23/11:00pm 14.5 15.9 14.5 100 0.0 CALM 0 0 0 0 1026.8 1026.8 0.4
23/10:30pm 14.4 13.7 14.4 100 0.0 S 11 13 6 7 1027.0 1027.0 0.4
23/10:00pm 14.5 14.2 14.5 100 0.0 SSW 9 13 5 7 1027.2 1027.2 0.2
23/09:30pm 14.6 14.8 14.6 100 0.0 S 7 11 4 6 1027.1 1027.1 0.0
23/09:00pm 14.6 14.8 14.6 100 0.0 SW 7 9 4 5 1026.9 1026.9 0.0
23/08:30pm 14.9 13.6 14.9 100 0.0 SSE 15 20 8 11 1027.1 1027.1 0.0
23/08:00pm 16.1 13.6 13.6 85 1.4 S 19 26 10 14 1026.7 1026.7 0.0
23/07:30pm 15.6 15.0 13.4 87 1.2 SSW 9 13 5 7 1026.4 1026.4 0.0
23/07:00pm 15.6 13.9 13.6 88 1.1 S 15 26 8 14 1026.3 1026.3 0.0
23/06:30pm 15.1 14.0 13.0 87 1.2 SSE 11 17 6 9 1025.8 1025.8 0.0
23/06:00pm 15.4 14.6 12.9 85 1.4 SSW 9 17 5 9 1025.6 1025.6 0.0
23/05:30pm 15.2 13.8 12.3 83 1.6 S 11 13 6 7 1025.1 1025.1 0.0
23/05:00pm 16.6 14.9 12.4 76 2.3 S 13 19 7 10 1025.0 1025.0 0.0
23/04:30pm 18.2 16.5 12.6 70 3.1 SSW 13 17 7 9 1024.8 1024.8 0.0
23/04:00pm 17.6 15.3 11.8 69 3.2 S 15 20 8 11 1024.7 1024.7 0.0
23/03:30pm 19.0 15.8 12.0 64 3.9 S 20 32 11 17 1024.6 1024.6 0.0
23/03:00pm 19.7 15.5 12.5 63 4.0 S 26 35 14 19 1024.3 1024.3 0.0
23/02:30pm 20.5 15.6 11.2 55 5.1 S 28 37 15 20 1024.1 1024.1 0.0
23/02:00pm 20.5 15.7 11.7 57 4.9 SSE 28 41 15 22 1024.0 1024.0 0.0
23/01:30pm 20.7 15.0 11.1 54 5.3 SSE 32 46 17 25 1023.9 1023.9 0.0
23/01:09pm 20.6 14.7 10.4 52 5.5 SSE 32 50 17 27 1023.9 1023.9 0.0
23/01:00pm 20.1 14.1 10.2 53 5.3 SSE 32 44 17 24 1024.0 1024.0 0.0
23/12:30pm 20.6 16.7 10.7 53 5.4 S 22 37 12 20 1024.2 1024.2 0.0
23/12:00pm 18.5 16.8 12.3 67 3.4 SSE 13 20 7 11 1024.7 1024.7 0.0
23/11:30am 18.7 16.5 12.2 66 3.6 S 15 20 8 11 1024.9 1024.9 0.0
23/11:00am 17.6 14.6 12.5 72 2.8 S 20 24 11 13 1025.2 1025.2 0.0
23/10:30am 16.7 12.3 13.0 79 2.1 S 28 39 15 21 1025.4 1025.4 0.0
23/10:00am 17.7 14.0 12.6 72 2.8 SSW 24 33 13 18 1025.1 1025.1 0.0
23/09:30am 17.2 13.8 11.2 68 3.2 SSW 20 30 11 16 1025.1 1025.1 0.0
23/09:00am 16.6 13.5 11.5 72 2.7 SSW 19 26 10 14 1024.8 1024.8 0.0
23/08:30am 15.5 12.0 10.9 74 2.4 SW 20 28 11 15 1024.5 1024.5 0.0
23/08:00am 14.9 12.0 10.9 77 2.1 SW 17 26 9 14 1024.3 1024.3 0.0
23/07:30am 14.8 11.6 10.0 73 2.5 SW 17 26 9 14 1024.0 1024.0 0.0
23/07:00am 14.1 11.7 9.9 76 2.2 SW 13 19 7 10 1023.4 1023.4 0.0
23/06:30am 13.8 11.3 9.8 77 2.1 SW 13 19 7 10 1022.9 1022.9 0.0
23/06:00am 13.2 10.8 10.0 81 1.6 SW 13 20 7 11 1022.3 1022.3 0.0
23/05:30am 12.8 10.7 9.6 81 1.6 SW 11 15 6 8 1021.9 1021.9 0.0
23/05:00am 13.6 11.6 10.0 79 1.9 SW 11 15 6 8 1021.7 1021.7 0.0
23/04:30am 13.5 11.1 10.1 80 1.8 SW 13 20 7 11 1021.2 1021.2 0.0
23/04:00am 14.0 10.8 10.0 77 2.1 SSW 17 22 9 12 1020.8 1020.8 0.0
23/03:30am 14.6 11.0 10.0 74 2.4 SW 19 26 10 14 1020.7 1020.7 0.0
23/03:00am 14.0 10.9 10.4 79 1.9 SW 17 22 9 12 1020.6 1020.6 0.0
23/02:30am 13.7 11.3 10.1 79 1.9 SW 13 17 7 9 1020.5 1020.5 0.0
23/02:00am 14.5 11.5 10.5 77 2.1 SW 17 24 9 13 1020.6 1020.6 0.0
23/01:30am 14.3 11.6 10.3 77 2.1 SW 15 20 8 11 1020.3 1020.3 0.0
23/01:00am 14.9 11.4 10.3 74 2.4 SW 19 24 10 13 1020.6 1020.6 0.0
23/12:30am 15.0 11.9 10.2 73 2.5 SW 17 24 9 13 1020.2 1020.2 0.0
23/12:00am 15.0 11.9 10.2 73 2.5 SW 17 22 9 12 1019.9 1019.9 0.0
 
Date/Time
EST
Temp
°C
App
Temp
°C
Dew
Point
Rel
Hum
%
Delta-T
°C
Wind Press
QNH
hPa
Press
MSL
hPa
Rain
since 9 am
mm
Dir
 
Spd
km/h
Gust
km/h
Spd
kts
Gust
kts
22/11:30pm 15.1 12.5 9.5 69 2.9 SW 13 19 7 10 1019.8 1019.8 0.0
22/11:00pm 15.2 11.9 9.6 69 2.9 SW 17 22 9 12 1019.6 1019.6 0.0
22/10:30pm 15.6 12.9 9.1 65 3.3 SW 13 19 7 10 1019.6 1019.6 0.0
22/10:00pm 15.1 11.9 8.6 65 3.3 SW 15 20 8 11 1019.3 1019.3 0.0
22/09:30pm 14.8 11.9 8.3 65 3.3 SW 13 17 7 9 1018.8 1018.8 0.0
22/09:00pm 15.3 12.0 8.1 62 3.6 WSW 15 20 8 11 1018.2 1018.2 0.0
22/08:30pm 15.8 12.1 8.1 60 3.9 WSW 17 22 9 12 1017.9 1017.9 0.0
22/08:00pm 16.9 12.2 7.8 55 4.6 WSW 22 33 12 18 1017.5 1017.5 0.0
22/07:30pm 16.9 12.5 7.5 54 4.7 W 20 30 11 16 1016.9 1016.9 0.0
22/07:00pm 17.6 13.2 7.6 52 5.0 W 20 30 11 16 1016.7 1016.7 0.0
22/06:30pm 17.5 13.3 7.5 52 5.0 WNW 19 28 10 15 1016.3 1016.3 0.0
22/06:00pm 17.6 12.4 7.1 50 5.2 W 24 33 13 18 1015.5 1015.5 0.0
22/05:30pm 16.5 12.2 7.2 54 4.6 W 19 28 10 15 1015.3 1015.3 0.0
22/05:00pm 17.3 13.4 7.1 51 5.1 W 17 28 9 15 1015.2 1015.2 0.0
22/04:30pm 18.4 14.1 6.9 47 5.8 WSW 19 26 10 14 1014.9 1014.9 0.0
22/04:00pm 19.4 15.6 7.5 46 6.1 W 17 22 9 12 1014.5 1014.5 0.0
22/03:30pm 19.9 15.7 7.6 45 6.3 WSW 19 28 10 15 1014.0 1014.0 0.0
22/03:00pm 19.8 14.4 6.2 41 6.8 W 24 33 13 18 1013.9 1013.9 0.0
22/02:30pm 20.1 15.3 7.5 44 6.5 W 22 33 12 18 1013.9 1013.9 0.0
22/02:00pm 20.3 14.7 7.3 43 6.6 W 26 41 14 22 1014.1 1014.1 0.0

Other Formats:

Comma delimited format used in spreadsheet applications
http://www.bom.gov.au/fwo/IDN60801/IDN60801.94572.axf

JavaScript Object Notation format (JSON) in row-major order
http://www.bom.gov.au/fwo/IDN60801/IDN60801.94572.json